sensor_id;sensor_type;location;lat;lon;timestamp;P1;durP1;ratioP1;P2;durP2;ratioP2
59390;SDS011;53405;57.012;40.984;2022-09-01T00:01:48;1.15;;;0.40;;
59390;SDS011;53405;57.012;40.984;2022-09-01T00:04:37;1.30;;;0.50;;
59390;SDS011;53405;57.012;40.984;2022-09-01T00:07:25;1.10;;;0.52;;
59390;SDS011;53405;57.012;40.984;2022-09-01T00:10:16;1.98;;;0.38;;
59390;SDS011;53405;57.012;40.984;2022-09-01T00:13:04;0.80;;;0.35;;
59390;SDS011;53405;57.012;40.984;2022-09-01T00:18:41;2.53;;;0.40;;
59390;SDS011;53405;57.012;40.984;2022-09-01T00:21:34;2.88;;;0.88;;
59390;SDS011;53405;57.012;40.984;2022-09-01T00:24:24;0.50;;;0.30;;
59390;SDS011;53405;57.012;40.984;2022-09-01T00:27:13;1.58;;;0.47;;
59390;SDS011;53405;57.012;40.984;2022-09-01T00:30:01;2.73;;;0.50;;
59390;SDS011;53405;57.012;40.984;2022-09-01T00:32:50;3.35;;;0.50;;
59390;SDS011;53405;57.012;40.984;2022-09-01T00:35:38;2.40;;;0.75;;
59390;SDS011;53405;57.012;40.984;2022-09-01T00:38:26;1.52;;;0.43;;
59390;SDS011;53405;57.012;40.984;2022-09-01T00:41:15;1.17;;;0.45;;
59390;SDS011;53405;57.012;40.984;2022-09-01T00:44:06;1.00;;;0.50;;
59390;SDS011;53405;57.012;40.984;2022-09-01T00:46:58;1.98;;;0.40;;
59390;SDS011;53405;57.012;40.984;2022-09-01T00:49:47;1.73;;;0.40;;
59390;SDS011;53405;57.012;40.984;2022-09-01T00:52:38;1.38;;;0.40;;
59390;SDS011;53405;57.012;40.984;2022-09-01T00:55:32;1.85;;;0.40;;
59390;SDS011;53405;57.012;40.984;2022-09-01T00:58:22;1.15;;;0.30;;
59390;SDS011;53405;57.012;40.984;2022-09-01T01:01:10;1.27;;;0.30;;
59390;SDS011;53405;57.012;40.984;2022-09-01T01:03:58;1.90;;;0.45;;
59390;SDS011;53405;57.012;40.984;2022-09-01T01:06:49;1.00;;;0.30;;
59390;SDS011;53405;57.012;40.984;2022-09-01T01:09:44;1.85;;;0.40;;
59390;SDS011;53405;57.012;40.984;2022-09-01T01:12:33;2.17;;;0.50;;
59390;SDS011;53405;57.012;40.984;2022-09-01T01:15:26;1.02;;;0.60;;
59390;SDS011;53405;57.012;40.984;2022-09-01T01:18:15;2.20;;;0.57;;
59390;SDS011;53405;57.012;40.984;2022-09-01T01:21:05;1.77;;;0.77;;
59390;SDS011;53405;57.012;40.984;2022-09-01T01:24:28;1.13;;;0.63;;
59390;SDS011;53405;57.012;40.984;2022-09-01T01:27:19;1.48;;;0.50;;
59390;SDS011;53405;57.012;40.984;2022-09-01T01:30:10;1.15;;;0.47;;
59390;SDS011;53405;57.012;40.984;2022-09-01T01:32:58;1.02;;;0.50;;
59390;SDS011;53405;57.012;40.984;2022-09-01T01:35:48;0.93;;;0.40;;
59390;SDS011;53405;57.012;40.984;2022-09-01T01:38:38;1.75;;;0.73;;
59390;SDS011;53405;57.012;40.984;2022-09-01T01:41:29;1.88;;;0.60;;
59390;SDS011;53405;57.012;40.984;2022-09-01T01:44:20;1.65;;;0.60;;
59390;SDS011;53405;57.012;40.984;2022-09-01T01:47:11;1.10;;;0.60;;
59390;SDS011;53405;57.012;40.984;2022-09-01T01:49:59;2.03;;;0.50;;
59390;SDS011;53405;57.012;40.984;2022-09-01T01:52:49;1.95;;;0.40;;
59390;SDS011;53405;57.012;40.984;2022-09-01T01:55:38;3.92;;;0.40;;
59390;SDS011;53405;57.012;40.984;2022-09-01T01:58:28;3.30;;;0.65;;
59390;SDS011;53405;57.012;40.984;2022-09-01T02:01:16;1.55;;;0.50;;
59390;SDS011;53405;57.012;40.984;2022-09-01T02:04:04;2.58;;;0.60;;
59390;SDS011;53405;57.012;40.984;2022-09-01T02:06:52;2.85;;;0.70;;
59390;SDS011;53405;57.012;40.984;2022-09-01T02:09:42;0.82;;;0.50;;
59390;SDS011;53405;57.012;40.984;2022-09-01T02:12:34;5.35;;;0.70;;
59390;SDS011;53405;57.012;40.984;2022-09-01T02:15:24;2.33;;;0.65;;
59390;SDS011;53405;57.012;40.984;2022-09-01T02:18:17;3.42;;;0.90;;
59390;SDS011;53405;57.012;40.984;2022-09-01T02:21:18;1.10;;;0.60;;
59390;SDS011;53405;57.012;40.984;2022-09-01T02:24:08;2.25;;;0.80;;
59390;SDS011;53405;57.012;40.984;2022-09-01T02:26:58;1.85;;;0.60;;
59390;SDS011;53405;57.012;40.984;2022-09-01T02:29:49;2.20;;;0.60;;
59390;SDS011;53405;57.012;40.984;2022-09-01T02:32:41;1.38;;;0.60;;
59390;SDS011;53405;57.012;40.984;2022-09-01T02:35:30;2.00;;;0.60;;
59390;SDS011;53405;57.012;40.984;2022-09-01T02:38:24;1.33;;;0.57;;
59390;SDS011;53405;57.012;40.984;2022-09-01T02:41:17;1.10;;;0.60;;
59390;SDS011;53405;57.012;40.984;2022-09-01T02:44:06;2.63;;;0.60;;
59390;SDS011;53405;57.012;40.984;2022-09-01T02:46:58;2.25;;;0.70;;
59390;SDS011;53405;57.012;40.984;2022-09-01T02:49:51;4.05;;;0.60;;
59390;SDS011;53405;57.012;40.984;2022-09-01T02:52:39;1.65;;;0.60;;
59390;SDS011;53405;57.012;40.984;2022-09-01T02:55:27;0.90;;;0.60;;
59390;SDS011;53405;57.012;40.984;2022-09-01T02:58:14;1.85;;;0.60;;
59390;SDS011;53405;57.012;40.984;2022-09-01T03:01:09;2.08;;;0.68;;
59390;SDS011;53405;57.012;40.984;2022-09-01T03:06:57;3.28;;;0.70;;
59390;SDS011;53405;57.012;40.984;2022-09-01T03:09:45;1.98;;;0.70;;
59390;SDS011;53405;57.012;40.984;2022-09-01T03:12:33;3.08;;;0.60;;
59390;SDS011;53405;57.012;40.984;2022-09-01T03:15:21;2.05;;;0.50;;
59390;SDS011;53405;57.012;40.984;2022-09-01T03:18:10;1.77;;;0.50;;
59390;SDS011;53405;57.012;40.984;2022-09-01T03:20:58;0.93;;;0.55;;
59390;SDS011;53405;57.012;40.984;2022-09-01T03:23:49;1.33;;;0.30;;
59390;SDS011;53405;57.012;40.984;2022-09-01T03:26:38;1.15;;;0.40;;
59390;SDS011;53405;57.012;40.984;2022-09-01T03:29:26;1.23;;;0.50;;
59390;SDS011;53405;57.012;40.984;2022-09-01T03:32:14;1.80;;;0.60;;
59390;SDS011;53405;57.012;40.984;2022-09-01T03:35:02;0.60;;;0.40;;
59390;SDS011;53405;57.012;40.984;2022-09-01T03:37:52;0.65;;;0.40;;
59390;SDS011;53405;57.012;40.984;2022-09-01T03:40:42;1.13;;;0.50;;
59390;SDS011;53405;57.012;40.984;2022-09-01T03:43:31;2.35;;;0.80;;
59390;SDS011;53405;57.012;40.984;2022-09-01T03:49:08;2.00;;;0.90;;
59390;SDS011;53405;57.012;40.984;2022-09-01T03:52:01;3.65;;;0.90;;
59390;SDS011;53405;57.012;40.984;2022-09-01T03:54:49;1.73;;;0.55;;
59390;SDS011;53405;57.012;40.984;2022-09-01T03:57:39;2.63;;;0.60;;
59390;SDS011;53405;57.012;40.984;2022-09-01T04:00:28;1.17;;;0.50;;
59390;SDS011;53405;57.012;40.984;2022-09-01T04:03:18;1.42;;;0.50;;
59390;SDS011;53405;57.012;40.984;2022-09-01T04:06:09;5.60;;;0.63;;
59390;SDS011;53405;57.012;40.984;2022-09-01T04:08:56;2.60;;;0.40;;
59390;SDS011;53405;57.012;40.984;2022-09-01T04:11:51;1.85;;;1.02;;
59390;SDS011;53405;57.012;40.984;2022-09-01T04:17:28;2.42;;;0.70;;
59390;SDS011;53405;57.012;40.984;2022-09-01T04:20:35;1.48;;;0.60;;
59390;SDS011;53405;57.012;40.984;2022-09-01T04:23:35;2.40;;;0.80;;
59390;SDS011;53405;57.012;40.984;2022-09-01T04:26:26;1.30;;;0.50;;
59390;SDS011;53405;57.012;40.984;2022-09-01T04:29:17;4.00;;;0.98;;
59390;SDS011;53405;57.012;40.984;2022-09-01T04:32:14;3.15;;;0.80;;
59390;SDS011;53405;57.012;40.984;2022-09-01T04:35:06;3.35;;;0.70;;
59390;SDS011;53405;57.012;40.984;2022-09-01T04:37:58;2.85;;;0.60;;
59390;SDS011;53405;57.012;40.984;2022-09-01T04:40:46;1.45;;;0.52;;
59390;SDS011;53405;57.012;40.984;2022-09-01T04:43:35;2.85;;;0.52;;
59390;SDS011;53405;57.012;40.984;2022-09-01T04:46:24;1.75;;;0.60;;
59390;SDS011;53405;57.012;40.984;2022-09-01T04:49:14;3.08;;;0.63;;
59390;SDS011;53405;57.012;40.984;2022-09-01T04:52:11;4.28;;;0.88;;
59390;SDS011;53405;57.012;40.984;2022-09-01T04:54:59;2.65;;;0.50;;
59390;SDS011;53405;57.012;40.984;2022-09-01T04:57:52;4.97;;;0.80;;
59390;SDS011;53405;57.012;40.984;2022-09-01T05:00:41;2.90;;;0.70;;
59390;SDS011;53405;57.012;40.984;2022-09-01T05:03:31;2.15;;;0.73;;
59390;SDS011;53405;57.012;40.984;2022-09-01T05:06:23;2.08;;;0.80;;
59390;SDS011;53405;57.012;40.984;2022-09-01T05:09:17;1.98;;;0.70;;
59390;SDS011;53405;57.012;40.984;2022-09-01T05:12:11;2.63;;;0.77;;
59390;SDS011;53405;57.012;40.984;2022-09-01T05:15:00;2.70;;;0.77;;
59390;SDS011;53405;57.012;40.984;2022-09-01T05:17:52;1.90;;;0.70;;
59390;SDS011;53405;57.012;40.984;2022-09-01T05:20:42;2.28;;;0.90;;
59390;SDS011;53405;57.012;40.984;2022-09-01T05:23:30;5.37;;;0.90;;
59390;SDS011;53405;57.012;40.984;2022-09-01T05:26:23;5.32;;;0.90;;
59390;SDS011;53405;57.012;40.984;2022-09-01T05:29:13;1.92;;;0.60;;
59390;SDS011;53405;57.012;40.984;2022-09-01T05:32:04;2.65;;;0.55;;
59390;SDS011;53405;57.012;40.984;2022-09-01T05:34:56;1.75;;;0.63;;
59390;SDS011;53405;57.012;40.984;2022-09-01T05:37:46;3.70;;;0.88;;
59390;SDS011;53405;57.012;40.984;2022-09-01T05:40:39;1.88;;;0.60;;
59390;SDS011;53405;57.012;40.984;2022-09-01T05:43:28;1.95;;;0.70;;
59390;SDS011;53405;57.012;40.984;2022-09-01T05:46:18;2.03;;;0.50;;
59390;SDS011;53405;57.012;40.984;2022-09-01T05:49:07;4.13;;;0.50;;
59390;SDS011;53405;57.012;40.984;2022-09-01T05:51:59;2.45;;;0.60;;
59390;SDS011;53405;57.012;40.984;2022-09-01T05:54:49;1.92;;;0.70;;
59390;SDS011;53405;57.012;40.984;2022-09-01T05:57:37;2.97;;;0.60;;
59390;SDS011;53405;57.012;40.984;2022-09-01T06:00:26;6.85;;;0.50;;
59390;SDS011;53405;57.012;40.984;2022-09-01T06:03:21;1.52;;;0.60;;
59390;SDS011;53405;57.012;40.984;2022-09-01T06:06:11;3.33;;;0.52;;
59390;SDS011;53405;57.012;40.984;2022-09-01T06:08:59;3.13;;;0.55;;
59390;SDS011;53405;57.012;40.984;2022-09-01T06:11:48;1.17;;;0.52;;
59390;SDS011;53405;57.012;40.984;2022-09-01T06:14:36;4.55;;;0.50;;
59390;SDS011;53405;57.012;40.984;2022-09-01T06:17:24;0.77;;;0.40;;
59390;SDS011;53405;57.012;40.984;2022-09-01T06:20:20;4.38;;;0.60;;
59390;SDS011;53405;57.012;40.984;2022-09-01T06:23:09;2.50;;;0.60;;
59390;SDS011;53405;57.012;40.984;2022-09-01T06:26:01;2.50;;;0.70;;
59390;SDS011;53405;57.012;40.984;2022-09-01T06:28:50;6.50;;;1.05;;
59390;SDS011;53405;57.012;40.984;2022-09-01T06:31:41;1.70;;;0.38;;
59390;SDS011;53405;57.012;40.984;2022-09-01T06:34:29;5.50;;;0.60;;
59390;SDS011;53405;57.012;40.984;2022-09-01T06:37:22;1.50;;;0.50;;
59390;SDS011;53405;57.012;40.984;2022-09-01T06:40:14;3.15;;;0.60;;
59390;SDS011;53405;57.012;40.984;2022-09-01T06:43:05;2.45;;;0.60;;
59390;SDS011;53405;57.012;40.984;2022-09-01T06:46:00;2.60;;;0.50;;
59390;SDS011;53405;57.012;40.984;2022-09-01T06:48:49;2.97;;;0.90;;
59390;SDS011;53405;57.012;40.984;2022-09-01T06:51:36;2.60;;;0.68;;
59390;SDS011;53405;57.012;40.984;2022-09-01T06:54:24;4.75;;;0.80;;
59390;SDS011;53405;57.012;40.984;2022-09-01T06:57:12;1.33;;;0.60;;
59390;SDS011;53405;57.012;40.984;2022-09-01T07:00:19;3.05;;;0.60;;
59390;SDS011;53405;57.012;40.984;2022-09-01T07:03:09;4.75;;;0.60;;
59390;SDS011;53405;57.012;40.984;2022-09-01T07:06:38;2.50;;;0.50;;
59390;SDS011;53405;57.012;40.984;2022-09-01T07:10:06;3.47;;;0.50;;
59390;SDS011;53405;57.012;40.984;2022-09-01T07:13:17;3.75;;;0.55;;
59390;SDS011;53405;57.012;40.984;2022-09-01T07:16:15;1.83;;;0.57;;
59390;SDS011;53405;57.012;40.984;2022-09-01T07:19:17;0.82;;;0.45;;
59390;SDS011;53405;57.012;40.984;2022-09-01T07:22:13;3.08;;;0.40;;
59390;SDS011;53405;57.012;40.984;2022-09-01T07:25:21;1.63;;;0.47;;
59390;SDS011;53405;57.012;40.984;2022-09-01T07:28:16;2.15;;;0.80;;
59390;SDS011;53405;57.012;40.984;2022-09-01T07:31:05;2.95;;;0.60;;
59390;SDS011;53405;57.012;40.984;2022-09-01T07:34:16;0.85;;;0.55;;
59390;SDS011;53405;57.012;40.984;2022-09-01T07:37:27;4.82;;;0.60;;
59390;SDS011;53405;57.012;40.984;2022-09-01T07:40:36;2.17;;;0.40;;
59390;SDS011;53405;57.012;40.984;2022-09-01T07:44:23;2.30;;;0.50;;
59390;SDS011;53405;57.012;40.984;2022-09-01T07:47:30;5.35;;;0.50;;
59390;SDS011;53405;57.012;40.984;2022-09-01T07:50:40;1.08;;;0.50;;
59390;SDS011;53405;57.012;40.984;2022-09-01T07:53:54;1.73;;;0.35;;
59390;SDS011;53405;57.012;40.984;2022-09-01T07:59:32;1.35;;;0.47;;
59390;SDS011;53405;57.012;40.984;2022-09-01T08:02:32;1.65;;;0.40;;
59390;SDS011;53405;57.012;40.984;2022-09-01T08:05:20;1.77;;;0.40;;
59390;SDS011;53405;57.012;40.984;2022-09-01T08:08:12;2.00;;;0.60;;
59390;SDS011;53405;57.012;40.984;2022-09-01T08:11:14;3.20;;;0.77;;
59390;SDS011;53405;57.012;40.984;2022-09-01T08:14:07;2.58;;;0.80;;
59390;SDS011;53405;57.012;40.984;2022-09-01T08:16:56;5.38;;;1.05;;
59390;SDS011;53405;57.012;40.984;2022-09-01T08:19:44;2.28;;;0.68;;
59390;SDS011;53405;57.012;40.984;2022-09-01T08:22:41;1.25;;;0.60;;
59390;SDS011;53405;57.012;40.984;2022-09-01T08:25:36;3.15;;;0.70;;
59390;SDS011;53405;57.012;40.984;2022-09-01T08:28:25;4.17;;;0.80;;
59390;SDS011;53405;57.012;40.984;2022-09-01T08:31:16;4.57;;;1.00;;
59390;SDS011;53405;57.012;40.984;2022-09-01T08:34:06;3.53;;;0.93;;
59390;SDS011;53405;57.012;40.984;2022-09-01T08:36:54;2.75;;;0.90;;
59390;SDS011;53405;57.012;40.984;2022-09-01T08:39:42;2.92;;;1.00;;
59390;SDS011;53405;57.012;40.984;2022-09-01T08:45:32;3.42;;;0.90;;
59390;SDS011;53405;57.012;40.984;2022-09-01T08:48:31;4.65;;;0.95;;
59390;SDS011;53405;57.012;40.984;2022-09-01T08:51:46;2.47;;;0.70;;
59390;SDS011;53405;57.012;40.984;2022-09-01T08:54:46;5.00;;;1.00;;
59390;SDS011;53405;57.012;40.984;2022-09-01T08:57:38;6.07;;;1.17;;
59390;SDS011;53405;57.012;40.984;2022-09-01T09:00:40;2.65;;;0.90;;
59390;SDS011;53405;57.012;40.984;2022-09-01T09:03:44;4.43;;;0.85;;
59390;SDS011;53405;57.012;40.984;2022-09-01T09:06:55;3.92;;;1.10;;
59390;SDS011;53405;57.012;40.984;2022-09-01T09:10:11;6.07;;;1.23;;
59390;SDS011;53405;57.012;40.984;2022-09-01T09:13:09;3.58;;;1.20;;
59390;SDS011;53405;57.012;40.984;2022-09-01T09:16:23;3.22;;;1.30;;
59390;SDS011;53405;57.012;40.984;2022-09-01T09:22:20;4.57;;;1.30;;
59390;SDS011;53405;57.012;40.984;2022-09-01T09:25:09;3.40;;;0.98;;
59390;SDS011;53405;57.012;40.984;2022-09-01T09:28:03;8.73;;;1.50;;
59390;SDS011;53405;57.012;40.984;2022-09-01T09:30:51;4.28;;;1.20;;
59390;SDS011;53405;57.012;40.984;2022-09-01T09:40:13;2.70;;;1.13;;
59390;SDS011;53405;57.012;40.984;2022-09-01T09:43:05;7.50;;;1.20;;
59390;SDS011;53405;57.012;40.984;2022-09-01T09:46:18;2.40;;;0.88;;
59390;SDS011;53405;57.012;40.984;2022-09-01T09:49:24;2.10;;;0.50;;
59390;SDS011;53405;57.012;40.984;2022-09-01T09:52:16;3.50;;;0.73;;
59390;SDS011;53405;57.012;40.984;2022-09-01T09:55:17;2.95;;;0.52;;
59390;SDS011;53405;57.012;40.984;2022-09-01T09:58:09;4.10;;;0.68;;
59390;SDS011;53405;57.012;40.984;2022-09-01T10:00:59;3.03;;;0.68;;
59390;SDS011;53405;57.012;40.984;2022-09-01T10:03:49;7.28;;;0.60;;
59390;SDS011;53405;57.012;40.984;2022-09-01T10:06:40;4.22;;;0.50;;
59390;SDS011;53405;57.012;40.984;2022-09-01T10:09:35;4.68;;;0.40;;
59390;SDS011;53405;57.012;40.984;2022-09-01T10:12:24;4.18;;;0.50;;
59390;SDS011;53405;57.012;40.984;2022-09-01T10:15:14;4.68;;;0.40;;
59390;SDS011;53405;57.012;40.984;2022-09-01T10:18:06;2.80;;;0.40;;
59390;SDS011;53405;57.012;40.984;2022-09-01T10:21:09;2.47;;;0.40;;
59390;SDS011;53405;57.012;40.984;2022-09-01T10:24:03;3.45;;;0.50;;
59390;SDS011;53405;57.012;40.984;2022-09-01T10:27:20;2.00;;;0.52;;
59390;SDS011;53405;57.012;40.984;2022-09-01T10:33:04;3.75;;;0.40;;
59390;SDS011;53405;57.012;40.984;2022-09-01T10:35:57;4.53;;;0.45;;
59390;SDS011;53405;57.012;40.984;2022-09-01T10:38:45;4.97;;;1.20;;
59390;SDS011;53405;57.012;40.984;2022-09-01T10:41:50;4.55;;;0.60;;
59390;SDS011;53405;57.012;40.984;2022-09-01T10:45:03;4.07;;;0.70;;
59390;SDS011;53405;57.012;40.984;2022-09-01T10:47:51;6.72;;;0.88;;
59390;SDS011;53405;57.012;40.984;2022-09-01T10:50:38;5.60;;;0.80;;
59390;SDS011;53405;57.012;40.984;2022-09-01T10:59:37;2.38;;;0.60;;
59390;SDS011;53405;57.012;40.984;2022-09-01T11:02:29;1.20;;;0.50;;
59390;SDS011;53405;57.012;40.984;2022-09-01T11:05:21;2.35;;;0.70;;
59390;SDS011;53405;57.012;40.984;2022-09-01T11:08:21;3.42;;;0.57;;
59390;SDS011;53405;57.012;40.984;2022-09-01T11:17:58;3.22;;;1.08;;
59390;SDS011;53405;57.012;40.984;2022-09-01T11:20:46;1.60;;;0.80;;
59390;SDS011;53405;57.012;40.984;2022-09-01T11:23:33;5.15;;;1.00;;
59390;SDS011;53405;57.012;40.984;2022-09-01T11:30:06;4.22;;;0.95;;
59390;SDS011;53405;57.012;40.984;2022-09-01T11:32:44;2.88;;;0.82;;
59390;SDS011;53405;57.012;40.984;2022-09-01T11:35:36;6.07;;;1.30;;
59390;SDS011;53405;57.012;40.984;2022-09-01T11:38:24;6.72;;;0.73;;
59390;SDS011;53405;57.012;40.984;2022-09-01T11:44:12;4.15;;;0.70;;
59390;SDS011;53405;57.012;40.984;2022-09-01T11:47:06;6.07;;;1.40;;
59390;SDS011;53405;57.012;40.984;2022-09-01T11:50:04;4.00;;;0.75;;
59390;SDS011;53405;57.012;40.984;2022-09-01T11:52:54;2.97;;;0.80;;
59390;SDS011;53405;57.012;40.984;2022-09-01T11:55:48;5.10;;;1.00;;
59390;SDS011;53405;57.012;40.984;2022-09-01T11:58:37;5.55;;;1.17;;
59390;SDS011;53405;57.012;40.984;2022-09-01T12:04:16;5.00;;;0.93;;
59390;SDS011;53405;57.012;40.984;2022-09-01T12:07:23;2.45;;;0.60;;
59390;SDS011;53405;57.012;40.984;2022-09-01T12:13:08;5.93;;;0.80;;
59390;SDS011;53405;57.012;40.984;2022-09-01T12:16:00;1.80;;;0.50;;
59390;SDS011;53405;57.012;40.984;2022-09-01T12:19:05;2.22;;;0.50;;
59390;SDS011;53405;57.012;40.984;2022-09-01T12:22:04;2.05;;;0.57;;
59390;SDS011;53405;57.012;40.984;2022-09-01T12:25:01;4.47;;;0.65;;
59390;SDS011;53405;57.012;40.984;2022-09-01T12:27:49;5.45;;;0.50;;
59390;SDS011;53405;57.012;40.984;2022-09-01T12:30:38;2.25;;;0.60;;
59390;SDS011;53405;57.012;40.984;2022-09-01T12:33:27;1.92;;;0.60;;
59390;SDS011;53405;57.012;40.984;2022-09-01T12:36:20;4.45;;;0.50;;
59390;SDS011;53405;57.012;40.984;2022-09-01T12:39:19;3.03;;;0.50;;
59390;SDS011;53405;57.012;40.984;2022-09-01T12:45:08;2.03;;;0.40;;
59390;SDS011;53405;57.012;40.984;2022-09-01T12:47:56;2.00;;;0.60;;
59390;SDS011;53405;57.012;40.984;2022-09-01T12:50:47;2.63;;;0.60;;
59390;SDS011;53405;57.012;40.984;2022-09-01T12:53:37;8.10;;;0.70;;
59390;SDS011;53405;57.012;40.984;2022-09-01T12:56:31;1.80;;;0.60;;
59390;SDS011;53405;57.012;40.984;2022-09-01T12:59:22;2.20;;;0.68;;
59390;SDS011;53405;57.012;40.984;2022-09-01T13:02:26;3.80;;;0.57;;
59390;SDS011;53405;57.012;40.984;2022-09-01T13:08:18;2.25;;;0.50;;
59390;SDS011;53405;57.012;40.984;2022-09-01T13:11:09;3.03;;;0.50;;
59390;SDS011;53405;57.012;40.984;2022-09-01T13:14:01;2.55;;;0.50;;
59390;SDS011;53405;57.012;40.984;2022-09-01T13:16:51;5.60;;;0.70;;
59390;SDS011;53405;57.012;40.984;2022-09-01T13:19:39;6.95;;;1.30;;
59390;SDS011;53405;57.012;40.984;2022-09-01T13:22:27;4.82;;;1.23;;
59390;SDS011;53405;57.012;40.984;2022-09-01T13:25:16;2.05;;;0.70;;
59390;SDS011;53405;57.012;40.984;2022-09-01T13:28:06;4.63;;;1.52;;
59390;SDS011;53405;57.012;40.984;2022-09-01T13:30:56;5.13;;;0.80;;
59390;SDS011;53405;57.012;40.984;2022-09-01T13:34:06;4.95;;;1.40;;
59390;SDS011;53405;57.012;40.984;2022-09-01T13:36:56;2.20;;;0.80;;
59390;SDS011;53405;57.012;40.984;2022-09-01T13:39:43;7.13;;;1.23;;
59390;SDS011;53405;57.012;40.984;2022-09-01T13:45:21;4.20;;;0.98;;
59390;SDS011;53405;57.012;40.984;2022-09-01T13:48:12;8.10;;;0.88;;
59390;SDS011;53405;57.012;40.984;2022-09-01T13:51:02;10.55;;;1.45;;
59390;SDS011;53405;57.012;40.984;2022-09-01T13:54:05;2.13;;;0.70;;
59390;SDS011;53405;57.012;40.984;2022-09-01T13:56:53;3.75;;;0.63;;
59390;SDS011;53405;57.012;40.984;2022-09-01T13:59:41;7.80;;;0.90;;
59390;SDS011;53405;57.012;40.984;2022-09-01T14:02:29;5.43;;;0.65;;
59390;SDS011;53405;57.012;40.984;2022-09-01T14:05:50;4.70;;;0.57;;
59390;SDS011;53405;57.012;40.984;2022-09-01T14:08:37;3.67;;;0.50;;
59390;SDS011;53405;57.012;40.984;2022-09-01T14:11:32;2.70;;;0.70;;
59390;SDS011;53405;57.012;40.984;2022-09-01T14:14:23;2.63;;;0.60;;
59390;SDS011;53405;57.012;40.984;2022-09-01T14:17:10;1.50;;;0.50;;
59390;SDS011;53405;57.012;40.984;2022-09-01T14:19:58;3.28;;;0.52;;
59390;SDS011;53405;57.012;40.984;2022-09-01T14:22:47;4.38;;;0.63;;
59390;SDS011;53405;57.012;40.984;2022-09-01T14:25:36;3.70;;;0.63;;
59390;SDS011;53405;57.012;40.984;2022-09-01T14:28:28;3.78;;;0.70;;
59390;SDS011;53405;57.012;40.984;2022-09-01T14:31:16;3.50;;;0.65;;
59390;SDS011;53405;57.012;40.984;2022-09-01T14:36:55;2.03;;;0.60;;
59390;SDS011;53405;57.012;40.984;2022-09-01T14:39:48;4.90;;;0.80;;
59390;SDS011;53405;57.012;40.984;2022-09-01T14:42:36;5.85;;;0.80;;
59390;SDS011;53405;57.012;40.984;2022-09-01T14:45:26;3.05;;;0.70;;
59390;SDS011;53405;57.012;40.984;2022-09-01T14:48:17;4.80;;;0.70;;
59390;SDS011;53405;57.012;40.984;2022-09-01T14:51:20;2.33;;;0.70;;
59390;SDS011;53405;57.012;40.984;2022-09-01T14:56:59;3.92;;;0.90;;
59390;SDS011;53405;57.012;40.984;2022-09-01T15:00:09;5.87;;;0.80;;
59390;SDS011;53405;57.012;40.984;2022-09-01T15:03:01;2.25;;;0.65;;
59390;SDS011;53405;57.012;40.984;2022-09-01T15:05:50;1.83;;;0.70;;
59390;SDS011;53405;57.012;40.984;2022-09-01T15:08:42;4.60;;;0.82;;
59390;SDS011;53405;57.012;40.984;2022-09-01T15:11:29;3.25;;;0.70;;
59390;SDS011;53405;57.012;40.984;2022-09-01T15:14:17;1.65;;;0.60;;
59390;SDS011;53405;57.012;40.984;2022-09-01T15:17:05;3.00;;;0.70;;
59390;SDS011;53405;57.012;40.984;2022-09-01T15:19:53;1.85;;;0.70;;
59390;SDS011;53405;57.012;40.984;2022-09-01T15:22:42;3.85;;;0.80;;
59390;SDS011;53405;57.012;40.984;2022-09-01T15:25:29;2.72;;;1.00;;
59390;SDS011;53405;57.012;40.984;2022-09-01T15:28:17;4.07;;;0.80;;
59390;SDS011;53405;57.012;40.984;2022-09-01T15:31:05;5.55;;;1.23;;
59390;SDS011;53405;57.012;40.984;2022-09-01T15:33:53;5.22;;;1.15;;
59390;SDS011;53405;57.012;40.984;2022-09-01T15:39:31;7.77;;;3.20;;
59390;SDS011;53405;57.012;40.984;2022-09-01T15:42:19;10.85;;;4.60;;
59390;SDS011;53405;57.012;40.984;2022-09-01T15:45:09;11.90;;;3.95;;
59390;SDS011;53405;57.012;40.984;2022-09-01T15:47:59;11.55;;;4.43;;
59390;SDS011;53405;57.012;40.984;2022-09-01T15:50:47;10.85;;;3.92;;
59390;SDS011;53405;57.012;40.984;2022-09-01T15:53:35;11.60;;;3.80;;
59390;SDS011;53405;57.012;40.984;2022-09-01T15:56:22;12.20;;;3.88;;
59390;SDS011;53405;57.012;40.984;2022-09-01T15:59:10;7.53;;;3.60;;
59390;SDS011;53405;57.012;40.984;2022-09-01T16:01:59;14.27;;;4.63;;
59390;SDS011;53405;57.012;40.984;2022-09-01T16:04:47;12.48;;;5.00;;
59390;SDS011;53405;57.012;40.984;2022-09-01T16:07:34;10.20;;;4.78;;
59390;SDS011;53405;57.012;40.984;2022-09-01T16:10:22;10.65;;;4.10;;
59390;SDS011;53405;57.012;40.984;2022-09-01T16:13:10;11.15;;;4.80;;
59390;SDS011;53405;57.012;40.984;2022-09-01T16:16:12;7.97;;;3.50;;
59390;SDS011;53405;57.012;40.984;2022-09-01T16:19:45;10.33;;;4.57;;
59390;SDS011;53405;57.012;40.984;2022-09-01T16:22:26;10.95;;;4.50;;
59390;SDS011;53405;57.012;40.984;2022-09-01T16:25:28;13.13;;;6.05;;
59390;SDS011;53405;57.012;40.984;2022-09-01T16:28:23;13.27;;;6.45;;
59390;SDS011;53405;57.012;40.984;2022-09-01T16:31:26;16.23;;;6.97;;
59390;SDS011;53405;57.012;40.984;2022-09-01T16:34:16;10.65;;;4.63;;
59390;SDS011;53405;57.012;40.984;2022-09-01T16:37:06;9.35;;;3.92;;
59390;SDS011;53405;57.012;40.984;2022-09-01T16:46:39;4.22;;;1.75;;
59390;SDS011;53405;57.012;40.984;2022-09-01T16:49:49;4.30;;;1.40;;
59390;SDS011;53405;57.012;40.984;2022-09-01T16:52:54;5.70;;;1.45;;
59390;SDS011;53405;57.012;40.984;2022-09-01T16:56:06;6.80;;;1.88;;
59390;SDS011;53405;57.012;40.984;2022-09-01T17:02:29;7.65;;;2.30;;
59390;SDS011;53405;57.012;40.984;2022-09-01T17:05:26;6.78;;;2.33;;
59390;SDS011;53405;57.012;40.984;2022-09-01T17:11:25;8.10;;;2.10;;
59390;SDS011;53405;57.012;40.984;2022-09-01T17:14:21;6.55;;;2.10;;
59390;SDS011;53405;57.012;40.984;2022-09-01T17:20:54;5.45;;;1.42;;
59390;SDS011;53405;57.012;40.984;2022-09-01T17:26:59;4.47;;;1.30;;
59390;SDS011;53405;57.012;40.984;2022-09-01T17:29:54;6.07;;;1.30;;
59390;SDS011;53405;57.012;40.984;2022-09-01T17:41:53;6.88;;;2.38;;
59390;SDS011;53405;57.012;40.984;2022-09-01T17:44:56;4.85;;;1.40;;
59390;SDS011;53405;57.012;40.984;2022-09-01T17:48:16;7.00;;;1.70;;
59390;SDS011;53405;57.012;40.984;2022-09-01T17:54:34;5.20;;;2.30;;
59390;SDS011;53405;57.012;40.984;2022-09-01T17:57:40;6.35;;;2.00;;
59390;SDS011;53405;57.012;40.984;2022-09-01T18:00:47;8.20;;;2.97;;
59390;SDS011;53405;57.012;40.984;2022-09-01T18:10:23;5.95;;;2.03;;
59390;SDS011;53405;57.012;40.984;2022-09-01T18:13:19;5.38;;;2.00;;
59390;SDS011;53405;57.012;40.984;2022-09-01T18:16:27;5.00;;;1.70;;
59390;SDS011;53405;57.012;40.984;2022-09-01T18:19:18;9.20;;;2.22;;
59390;SDS011;53405;57.012;40.984;2022-09-01T18:22:09;9.15;;;2.25;;
59390;SDS011;53405;57.012;40.984;2022-09-01T18:25:02;3.35;;;1.45;;
59390;SDS011;53405;57.012;40.984;2022-09-01T18:27:53;8.80;;;2.40;;
59390;SDS011;53405;57.012;40.984;2022-09-01T18:30:51;3.38;;;1.50;;
59390;SDS011;53405;57.012;40.984;2022-09-01T18:37:33;7.53;;;2.70;;
59390;SDS011;53405;57.012;40.984;2022-09-01T18:43:59;5.72;;;2.45;;
59390;SDS011;53405;57.012;40.984;2022-09-01T18:47:10;4.40;;;2.05;;
59390;SDS011;53405;57.012;40.984;2022-09-01T18:50:10;6.68;;;1.75;;
59390;SDS011;53405;57.012;40.984;2022-09-01T19:06:44;2.58;;;1.10;;
59390;SDS011;53405;57.012;40.984;2022-09-01T19:09:41;2.95;;;0.95;;
59390;SDS011;53405;57.012;40.984;2022-09-01T19:16:10;4.32;;;1.20;;
59390;SDS011;53405;57.012;40.984;2022-09-01T19:22:16;8.50;;;4.43;;
59390;SDS011;53405;57.012;40.984;2022-09-01T19:25:08;6.85;;;3.42;;
59390;SDS011;53405;57.012;40.984;2022-09-01T19:34:01;9.32;;;2.22;;